sensor_id;sensor_type;location;lat;lon;timestamp;pressure;altitude;pressure_sealevel;temperature;humidity
61361;BME280;47232;47.506;18.936;2023-06-22T00:23:05;98597.94;;;22.73;66.46
61361;BME280;47232;47.506;18.936;2023-06-22T04:08:46;98611.65;;;21.53;72.10
61361;BME280;47232;47.506;18.936;2023-06-22T04:41:00;98618.30;;;22.03;71.52
61361;BME280;47232;47.506;18.936;2023-06-22T07:47:59;98682.63;;;27.32;49.95
61361;BME280;47232;47.506;18.936;2023-06-22T08:34:49;98674.89;;;28.95;46.93
61361;BME280;47232;47.506;18.936;2023-06-22T08:47:04;98665.42;;;29.45;46.34
61361;BME280;47232;47.506;18.936;2023-06-22T08:59:23;98649.16;;;29.72;46.48
61361;BME280;47232;47.506;18.936;2023-06-22T10:43:00;98616.91;;;33.47;38.72
61361;BME280;47232;47.506;18.936;2023-06-22T11:07:16;98613.80;;;34.39;37.71
61361;BME280;47232;47.506;18.936;2023-06-22T11:27:39;98590.70;;;34.71;36.59
61361;BME280;47232;47.506;18.936;2023-06-22T12:14:35;98568.45;;;36.81;33.01
61361;BME280;47232;47.506;18.936;2023-06-22T12:42:38;98534.71;;;38.68;31.15
61361;BME280;47232;47.506;18.936;2023-06-22T12:49:37;98534.85;;;39.00;30.30
61361;BME280;47232;47.506;18.936;2023-06-22T13:17:10;98513.23;;;40.32;26.60
61361;BME280;47232;47.506;18.936;2023-06-22T13:19:40;98514.75;;;40.46;27.05
61361;BME280;47232;47.506;18.936;2023-06-22T13:26:30;98509.21;;;40.75;26.25
61361;BME280;47232;47.506;18.936;2023-06-22T13:29:04;98506.86;;;40.78;26.27
61361;BME280;47232;47.506;18.936;2023-06-22T13:31:59;98508.30;;;40.95;25.72
61361;BME280;47232;47.506;18.936;2023-06-22T13:34:34;98508.66;;;41.11;25.85
61361;BME280;47232;47.506;18.936;2023-06-22T13:37:14;98506.59;;;41.22;25.43
61361;BME280;47232;47.506;18.936;2023-06-22T13:39:52;98506.29;;;41.27;24.97
61361;BME280;47232;47.506;18.936;2023-06-22T13:42:19;98501.29;;;41.33;25.16
61361;BME280;47232;47.506;18.936;2023-06-22T13:44:51;98493.58;;;41.43;25.42
61361;BME280;47232;47.506;18.936;2023-06-22T13:47:20;98492.36;;;41.54;25.54
61361;BME280;47232;47.506;18.936;2023-06-22T13:49:46;98496.27;;;41.69;25.36
61361;BME280;47232;47.506;18.936;2023-06-22T13:52:17;98493.52;;;41.91;25.03
61361;BME280;47232;47.506;18.936;2023-06-22T13:54:53;98489.63;;;42.11;24.34
61361;BME280;47232;47.506;18.936;2023-06-22T13:57:28;98487.19;;;42.14;24.16
61361;BME280;47232;47.506;18.936;2023-06-22T13:59:56;98488.39;;;42.23;23.78
61361;BME280;47232;47.506;18.936;2023-06-22T14:02:31;98488.41;;;42.36;23.54
61361;BME280;47232;47.506;18.936;2023-06-22T14:05:00;98484.45;;;42.37;23.79
61361;BME280;47232;47.506;18.936;2023-06-22T14:07:32;98479.26;;;42.44;23.56
61361;BME280;47232;47.506;18.936;2023-06-22T14:10:20;98485.40;;;42.56;23.77
61361;BME280;47232;47.506;18.936;2023-06-22T14:13:19;98482.33;;;42.70;23.19
61361;BME280;47232;47.506;18.936;2023-06-22T14:15:46;98478.81;;;42.82;23.22
61361;BME280;47232;47.506;18.936;2023-06-22T14:19:11;98472.37;;;43.03;22.60
61361;BME280;47232;47.506;18.936;2023-06-22T14:21:39;98469.57;;;43.10;22.57
61361;BME280;47232;47.506;18.936;2023-06-22T14:24:18;98464.96;;;43.18;22.86
61361;BME280;47232;47.506;18.936;2023-06-22T14:26:45;98464.26;;;43.27;22.80
61361;BME280;47232;47.506;18.936;2023-06-22T14:29:14;98466.02;;;43.40;22.62
61361;BME280;47232;47.506;18.936;2023-06-22T14:31:44;98459.88;;;43.60;22.59
61361;BME280;47232;47.506;18.936;2023-06-22T14:34:21;98456.70;;;43.70;22.40
61361;BME280;47232;47.506;18.936;2023-06-22T14:37:09;98454.58;;;43.79;22.24
61361;BME280;47232;47.506;18.936;2023-06-22T14:40:21;98451.80;;;43.82;21.98
61361;BME280;47232;47.506;18.936;2023-06-22T14:42:52;98453.13;;;43.83;21.86
61361;BME280;47232;47.506;18.936;2023-06-22T14:45:34;98447.95;;;43.86;21.78
61361;BME280;47232;47.506;18.936;2023-06-22T14:48:28;98450.48;;;43.90;21.62
61361;BME280;47232;47.506;18.936;2023-06-22T14:51:12;98454.38;;;44.03;21.17
61361;BME280;47232;47.506;18.936;2023-06-22T14:53:39;98448.77;;;44.12;20.92
61361;BME280;47232;47.506;18.936;2023-06-22T14:56:06;98452.39;;;44.24;20.83
61361;BME280;47232;47.506;18.936;2023-06-22T14:58:36;98453.30;;;44.30;21.24
61361;BME280;47232;47.506;18.936;2023-06-22T15:01:15;98447.06;;;44.41;21.26
61361;BME280;47232;47.506;18.936;2023-06-22T15:03:52;98441.83;;;44.43;21.95
61361;BME280;47232;47.506;18.936;2023-06-22T15:06:26;98437.49;;;44.40;22.09
61361;BME280;47232;47.506;18.936;2023-06-22T15:09:19;98433.11;;;44.36;22.21
61361;BME280;47232;47.506;18.936;2023-06-22T15:11:45;98426.27;;;44.27;22.08
61361;BME280;47232;47.506;18.936;2023-06-22T15:14:33;98423.23;;;44.06;21.98
61361;BME280;47232;47.506;18.936;2023-06-22T15:17:00;98423.23;;;43.91;21.87
61361;BME280;47232;47.506;18.936;2023-06-22T15:19:31;98425.08;;;43.82;22.09
61361;BME280;47232;47.506;18.936;2023-06-22T15:22:19;98420.03;;;43.86;21.97
61361;BME280;47232;47.506;18.936;2023-06-22T15:25:08;98423.27;;;44.10;22.25
61361;BME280;47232;47.506;18.936;2023-06-22T15:27:40;98423.87;;;44.39;21.91
61361;BME280;47232;47.506;18.936;2023-06-22T15:30:14;98425.08;;;44.44;21.62
61361;BME280;47232;47.506;18.936;2023-06-22T15:32:55;98424.73;;;44.59;21.40
61361;BME280;47232;47.506;18.936;2023-06-22T15:35:21;98426.71;;;44.80;21.44
61361;BME280;47232;47.506;18.936;2023-06-22T15:37:52;98420.92;;;45.06;21.47
61361;BME280;47232;47.506;18.936;2023-06-22T15:40:23;98422.96;;;45.20;20.91
61361;BME280;47232;47.506;18.936;2023-06-22T15:43:03;98425.69;;;45.28;20.63
61361;BME280;47232;47.506;18.936;2023-06-22T15:45:48;98428.55;;;45.45;20.70
61361;BME280;47232;47.506;18.936;2023-06-22T15:48:18;98431.73;;;45.39;20.72
61361;BME280;47232;47.506;18.936;2023-06-22T15:50:45;98425.77;;;45.10;20.88
61361;BME280;47232;47.506;18.936;2023-06-22T15:53:12;98431.77;;;44.89;20.78
61361;BME280;47232;47.506;18.936;2023-06-22T15:55:48;98434.49;;;44.87;20.97
61361;BME280;47232;47.506;18.936;2023-06-22T15:58:17;98432.56;;;44.92;21.15
61361;BME280;47232;47.506;18.936;2023-06-22T16:00:53;98428.68;;;44.94;20.99
61361;BME280;47232;47.506;18.936;2023-06-22T16:03:40;98429.61;;;45.09;21.00
61361;BME280;47232;47.506;18.936;2023-06-22T16:06:15;98426.50;;;45.47;20.91
61361;BME280;47232;47.506;18.936;2023-06-22T16:08:57;98422.03;;;45.75;20.60
61361;BME280;47232;47.506;18.936;2023-06-22T16:11:30;98419.29;;;46.06;19.90
61361;BME280;47232;47.506;18.936;2023-06-22T16:14:10;98414.44;;;46.27;19.79
61361;BME280;47232;47.506;18.936;2023-06-22T16:16:39;98411.98;;;46.38;19.70
61361;BME280;47232;47.506;18.936;2023-06-22T16:19:08;98412.58;;;46.47;19.54
61361;BME280;47232;47.506;18.936;2023-06-22T16:21:34;98412.14;;;46.50;19.61
61361;BME280;47232;47.506;18.936;2023-06-22T16:24:00;98407.85;;;46.54;19.53
61361;BME280;47232;47.506;18.936;2023-06-22T16:26:36;98406.39;;;46.51;19.47
61361;BME280;47232;47.506;18.936;2023-06-22T16:29:23;98403.12;;;46.30;19.64
61361;BME280;47232;47.506;18.936;2023-06-22T16:31:49;98406.65;;;46.16;20.05
61361;BME280;47232;47.506;18.936;2023-06-22T16:34:36;98409.02;;;45.84;19.94
61361;BME280;47232;47.506;18.936;2023-06-22T16:37:39;98403.14;;;45.02;20.43
61361;BME280;47232;47.506;18.936;2023-06-22T16:40:31;98399.54;;;44.15;21.48
61361;BME280;47232;47.506;18.936;2023-06-22T16:43:01;98398.17;;;43.54;22.04
61361;BME280;47232;47.506;18.936;2023-06-22T16:45:27;98395.52;;;43.00;22.63
61361;BME280;47232;47.506;18.936;2023-06-22T16:47:55;98391.56;;;42.43;23.55
61361;BME280;47232;47.506;18.936;2023-06-22T16:50:21;98391.38;;;41.92;24.63
61361;BME280;47232;47.506;18.936;2023-06-22T16:52:54;98395.10;;;41.43;26.43
61361;BME280;47232;47.506;18.936;2023-06-22T16:55:47;98391.63;;;40.87;28.16
61361;BME280;47232;47.506;18.936;2023-06-22T16:58:15;98386.48;;;40.41;29.13
61361;BME280;47232;47.506;18.936;2023-06-22T17:00:46;98387.02;;;39.99;29.88
61361;BME280;47232;47.506;18.936;2023-06-22T17:03:20;98386.45;;;39.61;30.70
61361;BME280;47232;47.506;18.936;2023-06-22T17:06:05;98389.73;;;39.20;31.36
61361;BME280;47232;47.506;18.936;2023-06-22T17:08:36;98389.81;;;38.83;32.28
61361;BME280;47232;47.506;18.936;2023-06-22T17:11:26;98391.48;;;38.50;32.99
61361;BME280;47232;47.506;18.936;2023-06-22T17:14:00;98386.84;;;38.11;33.80
61361;BME280;47232;47.506;18.936;2023-06-22T17:51:41;98362.95;;;34.66;41.20
61361;BME280;47232;47.506;18.936;2023-06-22T17:55:11;98363.35;;;34.44;41.34
61361;BME280;47232;47.506;18.936;2023-06-22T17:58:40;98362.42;;;34.19;41.49
61361;BME280;47232;47.506;18.936;2023-06-22T18:02:08;98355.33;;;33.90;42.09
61361;BME280;47232;47.506;18.936;2023-06-22T18:08:59;98349.45;;;33.36;42.61
61361;BME280;47232;47.506;18.936;2023-06-22T18:12:37;98352.15;;;33.12;42.79
61361;BME280;47232;47.506;18.936;2023-06-22T18:16:00;98353.47;;;32.87;43.13
61361;BME280;47232;47.506;18.936;2023-06-22T18:19:28;98353.94;;;32.63;43.33
61361;BME280;47232;47.506;18.936;2023-06-22T18:23:01;98350.98;;;32.38;43.66
61361;BME280;47232;47.506;18.936;2023-06-22T18:26:13;98348.86;;;32.18;43.87
61361;BME280;47232;47.506;18.936;2023-06-22T18:29:40;98352.77;;;31.96;44.18
61361;BME280;47232;47.506;18.936;2023-06-22T18:32:57;98351.17;;;31.77;44.45
61361;BME280;47232;47.506;18.936;2023-06-22T18:36:15;98354.13;;;31.56;44.91
61361;BME280;47232;47.506;18.936;2023-06-22T18:42:00;98358.33;;;31.21;45.32
61361;BME280;47232;47.506;18.936;2023-06-22T18:44:53;98360.27;;;31.03;45.58
61361;BME280;47232;47.506;18.936;2023-06-22T18:51:11;98363.21;;;30.73;46.47
61361;BME280;47232;47.506;18.936;2023-06-22T18:54:24;98370.93;;;30.56;46.59
61361;BME280;47232;47.506;18.936;2023-06-22T18:57:49;98375.02;;;30.42;46.89
61361;BME280;47232;47.506;18.936;2023-06-22T19:04:16;98373.13;;;30.14;47.28
61361;BME280;47232;47.506;18.936;2023-06-22T19:07:48;98372.66;;;29.97;47.52
61361;BME280;47232;47.506;18.936;2023-06-22T19:14:21;98381.76;;;29.72;48.14
61361;BME280;47232;47.506;18.936;2023-06-22T19:17:42;98386.09;;;29.61;48.06
61361;BME280;47232;47.506;18.936;2023-06-22T19:20:25;98391.17;;;29.53;48.28
61361;BME280;47232;47.506;18.936;2023-06-22T19:23:37;98393.64;;;29.47;48.59
61361;BME280;47232;47.506;18.936;2023-06-22T19:26:49;98397.80;;;29.36;48.71
61361;BME280;47232;47.506;18.936;2023-06-22T19:29:21;98394.91;;;29.28;48.73
61361;BME280;47232;47.506;18.936;2023-06-22T19:32:27;98395.23;;;29.19;48.68
61361;BME280;47232;47.506;18.936;2023-06-22T19:35:40;98397.01;;;29.11;48.79
61361;BME280;47232;47.506;18.936;2023-06-22T19:39:06;98397.28;;;29.03;49.07
